sensor_id;sensor_type;location;lat;lon;timestamp;P1;durP1;ratioP1;P2;durP2;ratioP2
25990;SDS011;13779;-33.886;151.198;2022-12-18T00:01:50;6.68;;;1.23;;
25990;SDS011;13779;-33.886;151.198;2022-12-18T00:04:21;5.67;;;1.00;;
25990;SDS011;13779;-33.886;151.198;2022-12-18T00:06:57;5.68;;;1.38;;
25990;SDS011;13779;-33.886;151.198;2022-12-18T00:09:31;5.93;;;2.13;;
25990;SDS011;13779;-33.886;151.198;2022-12-18T00:12:06;7.47;;;2.20;;
25990;SDS011;13779;-33.886;151.198;2022-12-18T00:14:44;2.53;;;1.17;;
25990;SDS011;13779;-33.886;151.198;2022-12-18T00:17:15;3.70;;;1.33;;
25990;SDS011;13779;-33.886;151.198;2022-12-18T00:19:45;9.77;;;2.13;;
25990;SDS011;13779;-33.886;151.198;2022-12-18T00:22:16;9.00;;;3.22;;
25990;SDS011;13779;-33.886;151.198;2022-12-18T00:24:47;6.23;;;2.13;;
25990;SDS011;13779;-33.886;151.198;2022-12-18T00:27:17;5.78;;;1.10;;
25990;SDS011;13779;-33.886;151.198;2022-12-18T00:29:47;10.40;;;2.55;;
25990;SDS011;13779;-33.886;151.198;2022-12-18T00:32:18;6.78;;;1.70;;
25990;SDS011;13779;-33.886;151.198;2022-12-18T00:34:48;4.60;;;1.40;;
25990;SDS011;13779;-33.886;151.198;2022-12-18T00:37:18;7.20;;;1.50;;
25990;SDS011;13779;-33.886;151.198;2022-12-18T00:39:48;9.23;;;1.50;;
25990;SDS011;13779;-33.886;151.198;2022-12-18T00:42:18;3.85;;;1.25;;
25990;SDS011;13779;-33.886;151.198;2022-12-18T00:45:06;4.38;;;1.25;;
25990;SDS011;13779;-33.886;151.198;2022-12-18T00:47:39;4.10;;;0.70;;
25990;SDS011;13779;-33.886;151.198;2022-12-18T00:50:13;4.82;;;1.25;;
25990;SDS011;13779;-33.886;151.198;2022-12-18T00:52:43;2.05;;;0.75;;
25990;SDS011;13779;-33.886;151.198;2022-12-18T00:55:14;3.83;;;0.90;;
25990;SDS011;13779;-33.886;151.198;2022-12-18T01:00:14;5.68;;;0.98;;
25990;SDS011;13779;-33.886;151.198;2022-12-18T01:02:45;7.10;;;2.07;;
25990;SDS011;13779;-33.886;151.198;2022-12-18T01:05:15;7.68;;;1.00;;
25990;SDS011;13779;-33.886;151.198;2022-12-18T01:07:45;6.43;;;1.33;;
25990;SDS011;13779;-33.886;151.198;2022-12-18T01:10:15;6.28;;;1.30;;
25990;SDS011;13779;-33.886;151.198;2022-12-18T01:12:45;12.25;;;1.70;;
25990;SDS011;13779;-33.886;151.198;2022-12-18T01:15:16;11.30;;;1.92;;
25990;SDS011;13779;-33.886;151.198;2022-12-18T01:17:46;7.88;;;1.55;;
25990;SDS011;13779;-33.886;151.198;2022-12-18T01:20:16;8.27;;;2.25;;
25990;SDS011;13779;-33.886;151.198;2022-12-18T01:22:46;10.82;;;2.72;;
25990;SDS011;13779;-33.886;151.198;2022-12-18T01:25:17;9.95;;;2.42;;
25990;SDS011;13779;-33.886;151.198;2022-12-18T01:27:47;7.35;;;1.85;;
25990;SDS011;13779;-33.886;151.198;2022-12-18T01:30:18;8.45;;;1.70;;
25990;SDS011;13779;-33.886;151.198;2022-12-18T01:32:48;6.35;;;2.08;;
25990;SDS011;13779;-33.886;151.198;2022-12-18T01:35:18;7.80;;;1.33;;
25990;SDS011;13779;-33.886;151.198;2022-12-18T01:37:48;12.10;;;2.10;;
25990;SDS011;13779;-33.886;151.198;2022-12-18T01:40:23;9.73;;;2.08;;
25990;SDS011;13779;-33.886;151.198;2022-12-18T01:42:53;11.80;;;2.03;;
25990;SDS011;13779;-33.886;151.198;2022-12-18T01:45:27;8.65;;;2.30;;
25990;SDS011;13779;-33.886;151.198;2022-12-18T01:48:03;15.35;;;1.90;;
25990;SDS011;13779;-33.886;151.198;2022-12-18T01:50:37;10.32;;;2.22;;
25990;SDS011;13779;-33.886;151.198;2022-12-18T01:53:22;11.52;;;1.90;;
25990;SDS011;13779;-33.886;151.198;2022-12-18T01:55:53;15.00;;;1.90;;
25990;SDS011;13779;-33.886;151.198;2022-12-18T01:58:43;13.45;;;2.97;;
25990;SDS011;13779;-33.886;151.198;2022-12-18T02:01:24;13.45;;;2.97;;
25990;SDS011;13779;-33.886;151.198;2022-12-18T02:03:55;10.07;;;2.17;;
25990;SDS011;13779;-33.886;151.198;2022-12-18T02:06:42;12.75;;;2.10;;
25990;SDS011;13779;-33.886;151.198;2022-12-18T02:09:13;18.08;;;2.85;;
25990;SDS011;13779;-33.886;151.198;2022-12-18T02:11:53;11.77;;;1.90;;
25990;SDS011;13779;-33.886;151.198;2022-12-18T02:14:37;13.75;;;1.65;;
25990;SDS011;13779;-33.886;151.198;2022-12-18T02:20:25;8.65;;;1.88;;
25990;SDS011;13779;-33.886;151.198;2022-12-18T02:26:07;11.00;;;1.95;;
25990;SDS011;13779;-33.886;151.198;2022-12-18T02:28:42;12.07;;;1.45;;
25990;SDS011;13779;-33.886;151.198;2022-12-18T02:31:24;10.30;;;1.85;;
25990;SDS011;13779;-33.886;151.198;2022-12-18T02:33:59;13.20;;;2.60;;
25990;SDS011;13779;-33.886;151.198;2022-12-18T02:36:32;9.52;;;1.70;;
25990;SDS011;13779;-33.886;151.198;2022-12-18T02:39:05;12.43;;;2.10;;
25990;SDS011;13779;-33.886;151.198;2022-12-18T02:41:38;11.85;;;2.17;;
25990;SDS011;13779;-33.886;151.198;2022-12-18T02:44:10;10.90;;;2.35;;
25990;SDS011;13779;-33.886;151.198;2022-12-18T02:46:42;12.15;;;2.33;;
25990;SDS011;13779;-33.886;151.198;2022-12-18T02:49:35;15.63;;;3.00;;
25990;SDS011;13779;-33.886;151.198;2022-12-18T02:52:25;9.77;;;1.58;;
25990;SDS011;13779;-33.886;151.198;2022-12-18T02:57:58;12.57;;;1.83;;
25990;SDS011;13779;-33.886;151.198;2022-12-18T03:00:37;9.18;;;1.80;;
25990;SDS011;13779;-33.886;151.198;2022-12-18T03:06:10;10.10;;;1.90;;
25990;SDS011;13779;-33.886;151.198;2022-12-18T03:08:51;11.48;;;1.77;;
25990;SDS011;13779;-33.886;151.198;2022-12-18T03:11:39;16.30;;;2.50;;
25990;SDS011;13779;-33.886;151.198;2022-12-18T03:14:31;11.95;;;2.15;;
25990;SDS011;13779;-33.886;151.198;2022-12-18T03:17:05;6.70;;;1.52;;
25990;SDS011;13779;-33.886;151.198;2022-12-18T03:19:42;14.98;;;2.97;;
25990;SDS011;13779;-33.886;151.198;2022-12-18T03:22:15;10.15;;;2.22;;
25990;SDS011;13779;-33.886;151.198;2022-12-18T03:24:46;9.35;;;2.13;;
25990;SDS011;13779;-33.886;151.198;2022-12-18T03:27:18;10.82;;;2.47;;
25990;SDS011;13779;-33.886;151.198;2022-12-18T03:29:53;13.80;;;2.63;;
25990;SDS011;13779;-33.886;151.198;2022-12-18T03:32:56;12.85;;;2.45;;
25990;SDS011;13779;-33.886;151.198;2022-12-18T03:35:38;12.13;;;2.13;;
25990;SDS011;13779;-33.886;151.198;2022-12-18T03:38:11;14.85;;;2.38;;
25990;SDS011;13779;-33.886;151.198;2022-12-18T03:46:30;14.70;;;2.40;;
25990;SDS011;13779;-33.886;151.198;2022-12-18T03:49:06;19.23;;;3.15;;
25990;SDS011;13779;-33.886;151.198;2022-12-18T03:52:04;16.00;;;2.63;;
25990;SDS011;13779;-33.886;151.198;2022-12-18T03:54:38;13.95;;;2.25;;
25990;SDS011;13779;-33.886;151.198;2022-12-18T03:57:13;13.93;;;2.05;;
25990;SDS011;13779;-33.886;151.198;2022-12-18T04:00:07;10.65;;;1.98;;
25990;SDS011;13779;-33.886;151.198;2022-12-18T04:02:43;12.35;;;2.20;;
25990;SDS011;13779;-33.886;151.198;2022-12-18T04:05:17;13.75;;;3.13;;
25990;SDS011;13779;-33.886;151.198;2022-12-18T04:07:49;9.00;;;1.27;;
25990;SDS011;13779;-33.886;151.198;2022-12-18T04:10:22;6.68;;;1.50;;
25990;SDS011;13779;-33.886;151.198;2022-12-18T04:12:55;8.02;;;1.55;;
25990;SDS011;13779;-33.886;151.198;2022-12-18T04:15:26;10.15;;;1.90;;
25990;SDS011;13779;-33.886;151.198;2022-12-18T04:17:56;10.02;;;1.77;;
25990;SDS011;13779;-33.886;151.198;2022-12-18T04:20:26;12.25;;;2.00;;
25990;SDS011;13779;-33.886;151.198;2022-12-18T04:22:57;10.98;;;2.40;;
25990;SDS011;13779;-33.886;151.198;2022-12-18T04:25:27;12.15;;;1.88;;
25990;SDS011;13779;-33.886;151.198;2022-12-18T04:27:57;9.07;;;1.70;;
25990;SDS011;13779;-33.886;151.198;2022-12-18T04:30:28;7.80;;;1.30;;
25990;SDS011;13779;-33.886;151.198;2022-12-18T04:33:01;6.40;;;1.37;;
25990;SDS011;13779;-33.886;151.198;2022-12-18T04:35:35;7.82;;;1.38;;
25990;SDS011;13779;-33.886;151.198;2022-12-18T04:38:06;13.70;;;1.58;;
25990;SDS011;13779;-33.886;151.198;2022-12-18T04:40:39;10.18;;;2.10;;
25990;SDS011;13779;-33.886;151.198;2022-12-18T04:43:09;10.05;;;1.55;;
25990;SDS011;13779;-33.886;151.198;2022-12-18T04:45:39;12.50;;;2.20;;
25990;SDS011;13779;-33.886;151.198;2022-12-18T04:48:09;14.45;;;2.55;;
25990;SDS011;13779;-33.886;151.198;2022-12-18T04:50:40;9.93;;;2.10;;
25990;SDS011;13779;-33.886;151.198;2022-12-18T04:53:10;11.13;;;2.25;;
25990;SDS011;13779;-33.886;151.198;2022-12-18T04:55:40;12.95;;;2.05;;
25990;SDS011;13779;-33.886;151.198;2022-12-18T04:58:10;9.65;;;2.05;;
25990;SDS011;13779;-33.886;151.198;2022-12-18T05:00:43;8.05;;;1.27;;
25990;SDS011;13779;-33.886;151.198;2022-12-18T05:03:13;7.28;;;1.20;;
25990;SDS011;13779;-33.886;151.198;2022-12-18T05:05:44;13.27;;;2.20;;
25990;SDS011;13779;-33.886;151.198;2022-12-18T05:08:18;11.38;;;1.75;;
25990;SDS011;13779;-33.886;151.198;2022-12-18T05:10:48;12.53;;;1.90;;
25990;SDS011;13779;-33.886;151.198;2022-12-18T05:13:18;8.35;;;1.40;;
25990;SDS011;13779;-33.886;151.198;2022-12-18T05:15:51;9.50;;;1.60;;
25990;SDS011;13779;-33.886;151.198;2022-12-18T05:18:22;10.50;;;1.77;;
25990;SDS011;13779;-33.886;151.198;2022-12-18T05:20:53;10.05;;;1.50;;
25990;SDS011;13779;-33.886;151.198;2022-12-18T05:23:24;5.90;;;1.15;;
25990;SDS011;13779;-33.886;151.198;2022-12-18T05:25:58;9.93;;;1.70;;
25990;SDS011;13779;-33.886;151.198;2022-12-18T05:28:34;8.18;;;1.40;;
25990;SDS011;13779;-33.886;151.198;2022-12-18T05:31:05;7.78;;;1.33;;
25990;SDS011;13779;-33.886;151.198;2022-12-18T05:33:35;13.98;;;2.10;;
25990;SDS011;13779;-33.886;151.198;2022-12-18T05:36:06;7.38;;;1.50;;
25990;SDS011;13779;-33.886;151.198;2022-12-18T05:38:38;7.18;;;1.63;;
25990;SDS011;13779;-33.886;151.198;2022-12-18T05:41:09;6.88;;;1.23;;
25990;SDS011;13779;-33.886;151.198;2022-12-18T05:43:39;12.00;;;1.50;;
25990;SDS011;13779;-33.886;151.198;2022-12-18T05:46:13;10.43;;;1.50;;
25990;SDS011;13779;-33.886;151.198;2022-12-18T05:48:46;9.20;;;1.50;;
25990;SDS011;13779;-33.886;151.198;2022-12-18T05:51:20;9.05;;;1.50;;
25990;SDS011;13779;-33.886;151.198;2022-12-18T05:53:51;10.52;;;1.70;;
25990;SDS011;13779;-33.886;151.198;2022-12-18T05:56:22;7.80;;;2.10;;
25990;SDS011;13779;-33.886;151.198;2022-12-18T05:58:52;12.73;;;1.95;;
25990;SDS011;13779;-33.886;151.198;2022-12-18T06:01:25;10.23;;;1.85;;
25990;SDS011;13779;-33.886;151.198;2022-12-18T06:03:56;6.65;;;1.50;;
25990;SDS011;13779;-33.886;151.198;2022-12-18T06:06:28;11.20;;;1.70;;
25990;SDS011;13779;-33.886;151.198;2022-12-18T06:08:58;8.70;;;2.22;;
25990;SDS011;13779;-33.886;151.198;2022-12-18T06:11:29;10.15;;;1.90;;
25990;SDS011;13779;-33.886;151.198;2022-12-18T06:14:00;10.95;;;2.28;;
25990;SDS011;13779;-33.886;151.198;2022-12-18T06:16:30;12.43;;;2.33;;
25990;SDS011;13779;-33.886;151.198;2022-12-18T06:19:02;14.75;;;2.30;;
25990;SDS011;13779;-33.886;151.198;2022-12-18T06:21:33;8.63;;;1.75;;
25990;SDS011;13779;-33.886;151.198;2022-12-18T06:24:06;14.52;;;2.13;;
25990;SDS011;13779;-33.886;151.198;2022-12-18T06:26:38;12.10;;;2.30;;
25990;SDS011;13779;-33.886;151.198;2022-12-18T06:29:09;8.68;;;1.67;;
25990;SDS011;13779;-33.886;151.198;2022-12-18T06:31:39;10.05;;;1.50;;
25990;SDS011;13779;-33.886;151.198;2022-12-18T06:34:10;8.43;;;1.63;;
25990;SDS011;13779;-33.886;151.198;2022-12-18T06:36:40;12.57;;;2.10;;
25990;SDS011;13779;-33.886;151.198;2022-12-18T06:39:11;6.78;;;2.05;;
25990;SDS011;13779;-33.886;151.198;2022-12-18T06:41:41;10.00;;;2.00;;
25990;SDS011;13779;-33.886;151.198;2022-12-18T06:44:13;10.57;;;2.38;;
25990;SDS011;13779;-33.886;151.198;2022-12-18T06:46:45;11.43;;;2.10;;
25990;SDS011;13779;-33.886;151.198;2022-12-18T06:49:16;10.23;;;1.93;;
25990;SDS011;13779;-33.886;151.198;2022-12-18T06:51:50;8.75;;;2.15;;
25990;SDS011;13779;-33.886;151.198;2022-12-18T06:54:21;11.75;;;1.90;;
25990;SDS011;13779;-33.886;151.198;2022-12-18T06:56:52;13.20;;;1.55;;
25990;SDS011;13779;-33.886;151.198;2022-12-18T06:59:25;10.40;;;1.88;;
25990;SDS011;13779;-33.886;151.198;2022-12-18T07:01:59;5.78;;;1.50;;
25990;SDS011;13779;-33.886;151.198;2022-12-18T07:04:30;5.40;;;1.52;;
25990;SDS011;13779;-33.886;151.198;2022-12-18T07:07:01;6.45;;;1.63;;
25990;SDS011;13779;-33.886;151.198;2022-12-18T07:09:31;9.55;;;1.83;;
25990;SDS011;13779;-33.886;151.198;2022-12-18T07:12:02;6.07;;;1.50;;
25990;SDS011;13779;-33.886;151.198;2022-12-18T07:14:33;10.02;;;1.55;;
25990;SDS011;13779;-33.886;151.198;2022-12-18T07:17:04;11.87;;;3.10;;
25990;SDS011;13779;-33.886;151.198;2022-12-18T07:19:41;9.23;;;1.90;;
25990;SDS011;13779;-33.886;151.198;2022-12-18T07:22:12;12.38;;;2.30;;
25990;SDS011;13779;-33.886;151.198;2022-12-18T07:24:44;8.75;;;1.90;;
25990;SDS011;13779;-33.886;151.198;2022-12-18T07:27:14;14.02;;;2.28;;
25990;SDS011;13779;-33.886;151.198;2022-12-18T07:29:44;6.95;;;2.00;;
25990;SDS011;13779;-33.886;151.198;2022-12-18T07:32:14;7.60;;;2.60;;
25990;SDS011;13779;-33.886;151.198;2022-12-18T07:34:44;13.25;;;2.28;;
25990;SDS011;13779;-33.886;151.198;2022-12-18T07:37:15;7.80;;;2.50;;
25990;SDS011;13779;-33.886;151.198;2022-12-18T07:39:45;8.50;;;1.73;;
25990;SDS011;13779;-33.886;151.198;2022-12-18T07:42:15;13.35;;;2.83;;
25990;SDS011;13779;-33.886;151.198;2022-12-18T07:45:00;10.05;;;2.25;;
25990;SDS011;13779;-33.886;151.198;2022-12-18T07:47:30;10.83;;;2.00;;
25990;SDS011;13779;-33.886;151.198;2022-12-18T07:50:07;10.85;;;2.38;;
25990;SDS011;13779;-33.886;151.198;2022-12-18T07:52:37;12.55;;;2.05;;
25990;SDS011;13779;-33.886;151.198;2022-12-18T07:55:07;11.63;;;2.03;;
25990;SDS011;13779;-33.886;151.198;2022-12-18T07:57:37;12.77;;;1.95;;
25990;SDS011;13779;-33.886;151.198;2022-12-18T08:00:16;12.40;;;2.65;;
25990;SDS011;13779;-33.886;151.198;2022-12-18T08:02:47;6.00;;;1.57;;
25990;SDS011;13779;-33.886;151.198;2022-12-18T08:05:17;13.80;;;2.13;;
25990;SDS011;13779;-33.886;151.198;2022-12-18T08:07:49;11.52;;;2.40;;
25990;SDS011;13779;-33.886;151.198;2022-12-18T08:10:19;12.10;;;2.33;;
25990;SDS011;13779;-33.886;151.198;2022-12-18T08:15:22;12.23;;;2.65;;
25990;SDS011;13779;-33.886;151.198;2022-12-18T08:17:52;9.75;;;2.30;;
25990;SDS011;13779;-33.886;151.198;2022-12-18T08:20:25;9.98;;;2.20;;
25990;SDS011;13779;-33.886;151.198;2022-12-18T08:22:55;7.63;;;1.77;;
25990;SDS011;13779;-33.886;151.198;2022-12-18T08:25:26;10.32;;;1.85;;
25990;SDS011;13779;-33.886;151.198;2022-12-18T08:27:56;13.80;;;2.30;;
25990;SDS011;13779;-33.886;151.198;2022-12-18T08:30:28;7.32;;;1.90;;
25990;SDS011;13779;-33.886;151.198;2022-12-18T08:32:58;13.82;;;2.67;;
25990;SDS011;13779;-33.886;151.198;2022-12-18T08:35:29;6.25;;;1.83;;
25990;SDS011;13779;-33.886;151.198;2022-12-18T08:38:08;8.20;;;2.50;;
25990;SDS011;13779;-33.886;151.198;2022-12-18T08:40:39;14.00;;;1.92;;
25990;SDS011;13779;-33.886;151.198;2022-12-18T08:43:10;14.80;;;4.07;;
25990;SDS011;13779;-33.886;151.198;2022-12-18T08:45:59;8.85;;;1.90;;
25990;SDS011;13779;-33.886;151.198;2022-12-18T08:48:29;10.10;;;1.87;;
25990;SDS011;13779;-33.886;151.198;2022-12-18T08:51:00;8.23;;;1.75;;
25990;SDS011;13779;-33.886;151.198;2022-12-18T08:53:31;14.20;;;2.92;;
25990;SDS011;13779;-33.886;151.198;2022-12-18T08:56:02;13.60;;;2.75;;
25990;SDS011;13779;-33.886;151.198;2022-12-18T08:58:33;7.75;;;1.52;;
25990;SDS011;13779;-33.886;151.198;2022-12-18T09:01:06;7.35;;;1.70;;
25990;SDS011;13779;-33.886;151.198;2022-12-18T09:03:38;5.78;;;1.65;;
25990;SDS011;13779;-33.886;151.198;2022-12-18T09:08:42;8.55;;;1.80;;
25990;SDS011;13779;-33.886;151.198;2022-12-18T09:11:15;4.80;;;1.85;;
25990;SDS011;13779;-33.886;151.198;2022-12-18T09:13:54;12.68;;;3.08;;
25990;SDS011;13779;-33.886;151.198;2022-12-18T09:16:25;8.32;;;3.40;;
25990;SDS011;13779;-33.886;151.198;2022-12-18T09:18:58;8.00;;;3.00;;
25990;SDS011;13779;-33.886;151.198;2022-12-18T09:21:34;5.75;;;2.63;;
25990;SDS011;13779;-33.886;151.198;2022-12-18T09:24:13;7.60;;;3.60;;
25990;SDS011;13779;-33.886;151.198;2022-12-18T09:26:44;9.95;;;2.72;;
25990;SDS011;13779;-33.886;151.198;2022-12-18T09:29:18;10.75;;;3.08;;
25990;SDS011;13779;-33.886;151.198;2022-12-18T09:31:49;10.68;;;3.63;;
25990;SDS011;13779;-33.886;151.198;2022-12-18T09:34:19;5.75;;;2.35;;
25990;SDS011;13779;-33.886;151.198;2022-12-18T09:36:50;12.60;;;2.72;;
25990;SDS011;13779;-33.886;151.198;2022-12-18T09:39:21;11.65;;;3.72;;
25990;SDS011;13779;-33.886;151.198;2022-12-18T09:41:52;9.55;;;3.22;;
25990;SDS011;13779;-33.886;151.198;2022-12-18T09:47:03;8.82;;;2.65;;
25990;SDS011;13779;-33.886;151.198;2022-12-18T09:49:48;11.43;;;2.83;;
25990;SDS011;13779;-33.886;151.198;2022-12-18T09:55:05;15.38;;;2.97;;
25990;SDS011;13779;-33.886;151.198;2022-12-18T09:57:41;9.80;;;2.78;;
25990;SDS011;13779;-33.886;151.198;2022-12-18T10:00:20;12.02;;;3.10;;
25990;SDS011;13779;-33.886;151.198;2022-12-18T10:02:53;13.65;;;2.80;;
25990;SDS011;13779;-33.886;151.198;2022-12-18T10:08:22;14.07;;;3.67;;
25990;SDS011;13779;-33.886;151.198;2022-12-18T10:11:14;11.70;;;3.25;;
25990;SDS011;13779;-33.886;151.198;2022-12-18T10:21:51;17.80;;;2.20;;
25990;SDS011;13779;-33.886;151.198;2022-12-18T10:24:50;12.30;;;3.08;;
25990;SDS011;13779;-33.886;151.198;2022-12-18T10:27:28;13.02;;;4.03;;
25990;SDS011;13779;-33.886;151.198;2022-12-18T10:29:59;11.68;;;2.95;;
25990;SDS011;13779;-33.886;151.198;2022-12-18T10:32:33;13.48;;;2.53;;
25990;SDS011;13779;-33.886;151.198;2022-12-18T10:35:07;15.80;;;3.20;;
25990;SDS011;13779;-33.886;151.198;2022-12-18T10:38:01;15.23;;;4.85;;
25990;SDS011;13779;-33.886;151.198;2022-12-18T10:43:26;14.43;;;3.00;;
25990;SDS011;13779;-33.886;151.198;2022-12-18T10:54:01;15.95;;;3.83;;
25990;SDS011;13779;-33.886;151.198;2022-12-18T10:56:34;22.98;;;4.80;;
25990;SDS011;13779;-33.886;151.198;2022-12-18T10:59:07;18.58;;;3.53;;
25990;SDS011;13779;-33.886;151.198;2022-12-18T11:06:59;17.85;;;3.70;;
25990;SDS011;13779;-33.886;151.198;2022-12-18T11:09:32;19.45;;;2.97;;
25990;SDS011;13779;-33.886;151.198;2022-12-18T11:12:08;13.65;;;2.92;;
25990;SDS011;13779;-33.886;151.198;2022-12-18T11:14:47;21.20;;;4.45;;
25990;SDS011;13779;-33.886;151.198;2022-12-18T11:17:41;14.82;;;3.03;;
25990;SDS011;13779;-33.886;151.198;2022-12-18T11:20:27;15.27;;;3.50;;
25990;SDS011;13779;-33.886;151.198;2022-12-18T11:23:10;14.40;;;6.85;;
25990;SDS011;13779;-33.886;151.198;2022-12-18T11:25:50;13.18;;;4.22;;
25990;SDS011;13779;-33.886;151.198;2022-12-18T11:28:29;21.33;;;6.45;;
25990;SDS011;13779;-33.886;151.198;2022-12-18T11:36:49;16.15;;;4.50;;
25990;SDS011;13779;-33.886;151.198;2022-12-18T11:47:56;11.18;;;3.83;;
25990;SDS011;13779;-33.886;151.198;2022-12-18T11:50:51;10.52;;;2.08;;
25990;SDS011;13779;-33.886;151.198;2022-12-18T11:58:37;8.38;;;3.10;;
25990;SDS011;13779;-33.886;151.198;2022-12-18T12:01:35;11.63;;;2.63;;
25990;SDS011;13779;-33.886;151.198;2022-12-18T12:04:21;9.63;;;2.95;;
25990;SDS011;13779;-33.886;151.198;2022-12-18T12:32:35;13.27;;;2.97;;
25990;SDS011;13779;-33.886;151.198;2022-12-18T12:38:37;10.27;;;2.80;;
25990;SDS011;13779;-33.886;151.198;2022-12-18T12:40:59;11.68;;;2.90;;
25990;SDS011;13779;-33.886;151.198;2022-12-18T12:43:55;16.20;;;3.17;;
25990;SDS011;13779;-33.886;151.198;2022-12-18T12:46:27;11.63;;;2.72;;
25990;SDS011;13779;-33.886;151.198;2022-12-18T12:49:03;15.63;;;3.50;;
25990;SDS011;13779;-33.886;151.198;2022-12-18T12:51:45;15.93;;;2.50;;
25990;SDS011;13779;-33.886;151.198;2022-12-18T12:54:19;20.27;;;8.02;;
25990;SDS011;13779;-33.886;151.198;2022-12-18T12:57:30;14.38;;;2.83;;
25990;SDS011;13779;-33.886;151.198;2022-12-18T13:00:04;16.40;;;3.47;;
25990;SDS011;13779;-33.886;151.198;2022-12-18T13:05:59;23.25;;;4.53;;
25990;SDS011;13779;-33.886;151.198;2022-12-18T13:08:55;25.83;;;6.00;;
25990;SDS011;13779;-33.886;151.198;2022-12-18T13:11:29;21.48;;;3.40;;
25990;SDS011;13779;-33.886;151.198;2022-12-18T13:14:25;16.52;;;3.72;;
25990;SDS011;13779;-33.886;151.198;2022-12-18T13:19:51;24.27;;;3.38;;
25990;SDS011;13779;-33.886;151.198;2022-12-18T13:22:46;26.42;;;5.20;;
25990;SDS011;13779;-33.886;151.198;2022-12-18T13:25:29;24.98;;;3.97;;
25990;SDS011;13779;-33.886;151.198;2022-12-18T13:28:07;26.92;;;6.20;;
25990;SDS011;13779;-33.886;151.198;2022-12-18T13:30:43;22.85;;;5.57;;
25990;SDS011;13779;-33.886;151.198;2022-12-18T13:36:31;24.20;;;5.00;;
25990;SDS011;13779;-33.886;151.198;2022-12-18T13:44:37;24.42;;;7.28;;
25990;SDS011;13779;-33.886;151.198;2022-12-18T13:50:10;30.75;;;4.95;;
25990;SDS011;13779;-33.886;151.198;2022-12-18T13:53:02;33.38;;;7.20;;
25990;SDS011;13779;-33.886;151.198;2022-12-18T13:55:34;34.03;;;5.47;;
25990;SDS011;13779;-33.886;151.198;2022-12-18T13:58:05;34.22;;;5.90;;
25990;SDS011;13779;-33.886;151.198;2022-12-18T14:00:36;32.25;;;5.45;;
25990;SDS011;13779;-33.886;151.198;2022-12-18T14:03:18;34.95;;;5.80;;
25990;SDS011;13779;-33.886;151.198;2022-12-18T14:05:59;31.40;;;6.15;;
25990;SDS011;13779;-33.886;151.198;2022-12-18T14:08:38;25.30;;;5.50;;
25990;SDS011;13779;-33.886;151.198;2022-12-18T14:11:20;34.58;;;5.93;;
25990;SDS011;13779;-33.886;151.198;2022-12-18T14:13:53;25.92;;;4.93;;
25990;SDS011;13779;-33.886;151.198;2022-12-18T14:16:24;25.47;;;4.23;;
25990;SDS011;13779;-33.886;151.198;2022-12-18T14:18:56;20.45;;;4.47;;
25990;SDS011;13779;-33.886;151.198;2022-12-18T14:21:28;25.88;;;4.40;;
25990;SDS011;13779;-33.886;151.198;2022-12-18T14:24:15;24.27;;;4.68;;
25990;SDS011;13779;-33.886;151.198;2022-12-18T14:26:50;28.65;;;3.95;;
25990;SDS011;13779;-33.886;151.198;2022-12-18T14:29:28;24.48;;;4.20;;
25990;SDS011;13779;-33.886;151.198;2022-12-18T14:32:13;27.13;;;4.80;;
25990;SDS011;13779;-33.886;151.198;2022-12-18T14:37:21;20.38;;;3.15;;
25990;SDS011;13779;-33.886;151.198;2022-12-18T14:39:57;19.65;;;4.32;;
25990;SDS011;13779;-33.886;151.198;2022-12-18T14:42:37;23.73;;;3.97;;
25990;SDS011;13779;-33.886;151.198;2022-12-18T14:48:08;15.52;;;4.55;;
25990;SDS011;13779;-33.886;151.198;2022-12-18T14:50:55;20.05;;;4.20;;
25990;SDS011;13779;-33.886;151.198;2022-12-18T14:53:35;15.85;;;3.30;;
25990;SDS011;13779;-33.886;151.198;2022-12-18T14:59:01;20.95;;;4.80;;
25990;SDS011;13779;-33.886;151.198;2022-12-18T15:01:37;16.02;;;3.60;;
25990;SDS011;13779;-33.886;151.198;2022-12-18T15:04:34;19.75;;;5.63;;
25990;SDS011;13779;-33.886;151.198;2022-12-18T15:07:17;20.80;;;3.83;;
25990;SDS011;13779;-33.886;151.198;2022-12-18T15:10:07;19.77;;;4.30;;
25990;SDS011;13779;-33.886;151.198;2022-12-18T15:15:46;16.67;;;3.80;;
25990;SDS011;13779;-33.886;151.198;2022-12-18T15:18:18;18.70;;;3.70;;
25990;SDS011;13779;-33.886;151.198;2022-12-18T15:20:59;19.05;;;3.10;;
25990;SDS011;13779;-33.886;151.198;2022-12-18T15:26:17;22.02;;;3.45;;
25990;SDS011;13779;-33.886;151.198;2022-12-18T15:28:55;20.27;;;3.08;;
25990;SDS011;13779;-33.886;151.198;2022-12-18T15:31:31;23.08;;;3.80;;
25990;SDS011;13779;-33.886;151.198;2022-12-18T15:34:19;24.75;;;4.60;;
25990;SDS011;13779;-33.886;151.198;2022-12-18T15:36:56;29.17;;;4.70;;
25990;SDS011;13779;-33.886;151.198;2022-12-18T15:39:27;24.08;;;4.38;;
25990;SDS011;13779;-33.886;151.198;2022-12-18T15:41:57;39.65;;;5.22;;
25990;SDS011;13779;-33.886;151.198;2022-12-18T15:44:47;25.02;;;4.35;;
25990;SDS011;13779;-33.886;151.198;2022-12-18T15:47:17;27.38;;;4.13;;
25990;SDS011;13779;-33.886;151.198;2022-12-18T15:49:47;27.08;;;5.57;;
25990;SDS011;13779;-33.886;151.198;2022-12-18T15:52:17;29.23;;;5.00;;
25990;SDS011;13779;-33.886;151.198;2022-12-18T15:54:54;28.00;;;4.90;;
25990;SDS011;13779;-33.886;151.198;2022-12-18T15:57:42;31.80;;;4.25;;
25990;SDS011;13779;-33.886;151.198;2022-12-18T16:00:13;26.70;;;5.35;;
25990;SDS011;13779;-33.886;151.198;2022-12-18T16:02:43;30.90;;;7.75;;
25990;SDS011;13779;-33.886;151.198;2022-12-18T16:05:15;35.65;;;5.18;;
25990;SDS011;13779;-33.886;151.198;2022-12-18T16:07:46;32.35;;;5.55;;
25990;SDS011;13779;-33.886;151.198;2022-12-18T16:10:17;27.97;;;5.83;;
25990;SDS011;13779;-33.886;151.198;2022-12-18T16:12:47;34.15;;;5.05;;
25990;SDS011;13779;-33.886;151.198;2022-12-18T16:15:17;37.03;;;6.00;;
25990;SDS011;13779;-33.886;151.198;2022-12-18T16:17:50;31.23;;;5.25;;
25990;SDS011;13779;-33.886;151.198;2022-12-18T16:20:21;26.60;;;4.85;;
25990;SDS011;13779;-33.886;151.198;2022-12-18T16:22:51;32.15;;;4.90;;
25990;SDS011;13779;-33.886;151.198;2022-12-18T16:25:23;28.67;;;5.55;;
25990;SDS011;13779;-33.886;151.198;2022-12-18T16:27:55;28.73;;;4.53;;
25990;SDS011;13779;-33.886;151.198;2022-12-18T16:30:28;35.92;;;5.00;;
25990;SDS011;13779;-33.886;151.198;2022-12-18T16:33:01;31.23;;;5.40;;
25990;SDS011;13779;-33.886;151.198;2022-12-18T16:35:33;32.95;;;4.65;;
25990;SDS011;13779;-33.886;151.198;2022-12-18T16:38:05;40.38;;;7.10;;
25990;SDS011;13779;-33.886;151.198;2022-12-18T16:40:36;20.23;;;4.50;;
25990;SDS011;13779;-33.886;151.198;2022-12-18T16:43:27;30.80;;;6.15;;
25990;SDS011;13779;-33.886;151.198;2022-12-18T16:45:58;29.10;;;4.57;;
25990;SDS011;13779;-33.886;151.198;2022-12-18T16:48:29;27.45;;;5.30;;
25990;SDS011;13779;-33.886;151.198;2022-12-18T16:51:00;23.02;;;4.22;;
25990;SDS011;13779;-33.886;151.198;2022-12-18T16:53:32;22.65;;;4.07;;
25990;SDS011;13779;-33.886;151.198;2022-12-18T16:56:02;30.48;;;4.13;;
25990;SDS011;13779;-33.886;151.198;2022-12-18T16:58:33;22.47;;;4.27;;
25990;SDS011;13779;-33.886;151.198;2022-12-18T17:01:10;27.33;;;4.70;;
25990;SDS011;13779;-33.886;151.198;2022-12-18T17:03:41;29.02;;;5.13;;